Atlantic Elm — 9HA3054 — position and weather

sailwx.info

Track history (hours):
 
Tides and Currents Weather Stations Pressure Air Temp Water Temp Dewpoint Dewpoint Depression Visibility Wind Speed Wind Dir Waves Ship Positions

Atlantic Elm

Last reported at 2017-Jan-09 12:33 UTC. Time now 2017-Jan-19 19:10 UTC.
Position N 32°26' W 118°43'.
Warning: this ship's position is 10 days out of date.

Length 190 m; draft 10.9 m.

Type: Ship (hazmat cat A). MMSI: 229081000.

Date/timePositionNaut miles runAvg speedWind from/ knotsBaromVisibWave heightAir tempDewpointWater temp
2017-Jan-09 12:33N 32°26' W 118°43'1212.4
2017-Jan-09 11:33N 32°32' W 118°30'1212.5
2017-Jan-09 10:33N 32°38' W 118°17'1111.4
2017-Jan-09 09:33N 32°46' W 118°07'1212.4
2017-Jan-09 08:33N 32°58' W 118°04'1212.1
2017-Jan-09 07:33N 33°10' W 118°04'1111.1
2017-Jan-09 06:33N 33°21' W 118°07'10 9.7
2017-Jan-09 05:33N 33°30' W 118°11'10 9.7
2017-Jan-09 04:33N 33°39' W 118°12'6 5.6
2017-Jan-09 03:33N 33°45' W 118°12'0 0.0
2017-Jan-08 19:05N 33°45' W 118°12'0 0.0
2017-Jan-08 18:29N 33°45' W 118°12'0 0.0
2017-Jan-08 09:08N 33°45' W 118°12'0 0.0
2017-Jan-08 03:23N 33°45' W 118°12'0 0.0
2017-Jan-07 21:17N 33°45' W 118°12'0 0.0
2017-Jan-07 20:29N 33°45' W 118°12'0 0.0
2017-Jan-07 19:31N 33°45' W 118°12'0 0.0
2017-Jan-07 18:13N 33°45' W 118°12'0 0.0
2017-Jan-07 17:32N 33°45' W 118°12'0 0.0
2017-Jan-07 16:31N 33°45' W 118°12'0 0.0
2017-Jan-07 15:32N 33°45' W 118°12'0 0.0
2017-Jan-07 14:11N 33°45' W 118°12'0 0.0
2017-Jan-07 03:26N 33°45' W 118°12'1 1.6
2017-Jan-07 02:32N 33°44' W 118°13'0 0.1
2017-Jan-07 01:32N 33°44' W 118°14'0 0.1
2017-Jan-07 00:32N 33°44' W 118°14'0 0.0
2017-Jan-06 23:32N 33°44' W 118°14'0 0.0
2017-Jan-06 22:32N 33°44' W 118°14'0 0.0
2017-Jan-05 07:14N 33°44' W 118°14'0 0.1
2017-Jan-05 06:20N 33°44' W 118°14'0 0.0
2017-Jan-05 05:32N 33°44' W 118°14'0 0.0
2017-Jan-05 04:26N 33°44' W 118°14'0 0.1
2017-Jan-05 03:29N 33°44' W 118°14'0 0.1
2017-Jan-05 02:29N 33°44' W 118°14'0 0.0
2017-Jan-05 01:05N 33°44' W 118°14'0 0.0
2017-Jan-05 00:32N 33°44' W 118°14'0 0.0
2017-Jan-04 23:32N 33°44' W 118°14'0 0.2
2017-Jan-04 22:29N 33°44' W 118°14'0 0.0
2017-Jan-04 20:08N 33°44' W 118°14'0 0.0
2017-Jan-04 19:11N 33°44' W 118°14'0 0.0
2017-Jan-04 18:32N 33°44' W 118°14'0 0.0
2017-Jan-04 17:17N 33°44' W 118°14'0 0.0
2017-Jan-04 16:32N 33°44' W 118°14'0 0.1
2017-Jan-04 15:32N 33°44' W 118°14'0 0.0
2017-Jan-04 14:23N 33°44' W 118°14'0 0.1
2017-Jan-04 13:32N 33°44' W 118°14'0 0.0
2017-Jan-04 12:29N 33°44' W 118°14'0 0.0
2017-Jan-04 10:32N 33°44' W 118°14'0 0.1
2017-Jan-04 09:26N 33°44' W 118°14'0 0.0
2017-Jan-04 07:29N 33°44' W 118°14'0 0.1
2017-Jan-04 05:20N 33°44' W 118°14'0 0.0
2017-Jan-04 04:32N 33°44' W 118°14'0 0.0
2017-Jan-04 03:29N 33°44' W 118°13'0 0.0
2017-Jan-04 02:17N 33°44' W 118°14'0 0.0
2017-Jan-04 01:11N 33°44' W 118°14'0 0.1
2017-Jan-04 00:32N 33°44' W 118°14'0 0.0
2017-Jan-03 23:26N 33°44' W 118°14'0 0.1
2017-Jan-03 22:32N 33°44' W 118°14'0 0.0
2017-Jan-03 16:32N 33°44' W 118°14'0 0.0
2017-Jan-03 13:26N 33°44' W 118°14'5 0.1
2017-Jan-01 19:33N 33°39' W 118°11'8 8.4
2017-Jan-01 18:33N 33°36' W 118°21'  
Track history (hours):
 
Tides and Currents Weather Stations Pressure Air Temp Water Temp Dewpoint Dewpoint Depression Visibility Wind Speed Wind Dir Waves Ship Positions

Atlantic Elm

Last reported at 2017-Jan-09 12:33 UTC. Time now 2017-Jan-19 19:10 UTC.
Position N 32°26' W 118°43'.
Warning: this ship's position is 10 days out of date.

Length 190 m; draft 10.9 m.

Type: Ship (hazmat cat A). MMSI: 229081000.

Date/timePositionNaut miles runAvg speedWind from/ knotsBaromVisibWave heightAir tempDewpointWater temp
2017-Jan-09 12:33N 32°26' W 118°43'1212.4
2017-Jan-09 11:33N 32°32' W 118°30'1212.5
2017-Jan-09 10:33N 32°38' W 118°17'1111.4
2017-Jan-09 09:33N 32°46' W 118°07'1212.4
2017-Jan-09 08:33N 32°58' W 118°04'1212.1
2017-Jan-09 07:33N 33°10' W 118°04'1111.1
2017-Jan-09 06:33N 33°21' W 118°07'10 9.7
2017-Jan-09 05:33N 33°30' W 118°11'10 9.7
2017-Jan-09 04:33N 33°39' W 118°12'6 5.6
2017-Jan-09 03:33N 33°45' W 118°12'0 0.0
2017-Jan-08 19:05N 33°45' W 118°12'0 0.0
2017-Jan-08 18:29N 33°45' W 118°12'0 0.0
2017-Jan-08 09:08N 33°45' W 118°12'0 0.0
2017-Jan-08 03:23N 33°45' W 118°12'0 0.0
2017-Jan-07 21:17N 33°45' W 118°12'0 0.0
2017-Jan-07 20:29N 33°45' W 118°12'0 0.0
2017-Jan-07 19:31N 33°45' W 118°12'0 0.0
2017-Jan-07 18:13N 33°45' W 118°12'0 0.0
2017-Jan-07 17:32N 33°45' W 118°12'0 0.0
2017-Jan-07 16:31N 33°45' W 118°12'0 0.0
2017-Jan-07 15:32N 33°45' W 118°12'0 0.0
2017-Jan-07 14:11N 33°45' W 118°12'0 0.0
2017-Jan-07 03:26N 33°45' W 118°12'1 1.6
2017-Jan-07 02:32N 33°44' W 118°13'0 0.1
2017-Jan-07 01:32N 33°44' W 118°14'0 0.1
2017-Jan-07 00:32N 33°44' W 118°14'0 0.0
2017-Jan-06 23:32N 33°44' W 118°14'0 0.0
2017-Jan-06 22:32N 33°44' W 118°14'0 0.0
2017-Jan-05 07:14N 33°44' W 118°14'0 0.1
2017-Jan-05 06:20N 33°44' W 118°14'0 0.0
2017-Jan-05 05:32N 33°44' W 118°14'0 0.0
2017-Jan-05 04:26N 33°44' W 118°14'0 0.1
2017-Jan-05 03:29N 33°44' W 118°14'0 0.1
2017-Jan-05 02:29N 33°44' W 118°14'0 0.0
2017-Jan-05 01:05N 33°44' W 118°14'0 0.0
2017-Jan-05 00:32N 33°44' W 118°14'0 0.0
2017-Jan-04 23:32N 33°44' W 118°14'0 0.2
2017-Jan-04 22:29N 33°44' W 118°14'0 0.0
2017-Jan-04 20:08N 33°44' W 118°14'0 0.0
2017-Jan-04 19:11N 33°44' W 118°14'0 0.0
2017-Jan-04 18:32N 33°44' W 118°14'0 0.0
2017-Jan-04 17:17N 33°44' W 118°14'0 0.0
2017-Jan-04 16:32N 33°44' W 118°14'0 0.1
2017-Jan-04 15:32N 33°44' W 118°14'0 0.0
2017-Jan-04 14:23N 33°44' W 118°14'0 0.1
2017-Jan-04 13:32N 33°44' W 118°14'0 0.0
2017-Jan-04 12:29N 33°44' W 118°14'0 0.0
2017-Jan-04 10:32N 33°44' W 118°14'0 0.1
2017-Jan-04 09:26N 33°44' W 118°14'0 0.0
2017-Jan-04 07:29N 33°44' W 118°14'0 0.1
2017-Jan-04 05:20N 33°44' W 118°14'0 0.0
2017-Jan-04 04:32N 33°44' W 118°14'0 0.0
2017-Jan-04 03:29N 33°44' W 118°13'0 0.0
2017-Jan-04 02:17N 33°44' W 118°14'0 0.0
2017-Jan-04 01:11N 33°44' W 118°14'0 0.1
2017-Jan-04 00:32N 33°44' W 118°14'0 0.0
2017-Jan-03 23:26N 33°44' W 118°14'0 0.1
2017-Jan-03 22:32N 33°44' W 118°14'0 0.0
2017-Jan-03 16:32N 33°44' W 118°14'0 0.0
2017-Jan-03 13:26N 33°44' W 118°14'5 0.1
2017-Jan-01 19:33N 33°39' W 118°11'8 8.4
2017-Jan-01 18:33N 33°36' W 118°21'  

Dump ship's entire track history